Time;durP1;ratioP1;P1;durP2;ratioP2;P2;SDS_P1;SDS_P2;PMS_P1;PMS_P2;Temp;Humidity;BMP_temperature;BMP_pressure;BME280_temperature;BME280_humidity;BME280_pressure;Samples;Min_cycle;Max_cycle;Signal;HPM_P1;HPM_P2
2022/06/03 00:01:08;;;;;;;;;;;20.40;56.30;;;;;;5064649;28;20531;-65
2022/06/03 00:03:44;;;;;;;;;;;20.40;56.30;;;;;;5085131;28;20432;-65
2022/06/03 00:06:27;;;;;;;;;;;20.40;56.30;;;;;;5067330;28;20787;-64
2022/06/03 00:08:55;;;;;;;;;;;20.40;56.30;;;;;;5027095;28;20279;-65
2022/06/03 00:11:32;;;;;;;;;;;20.40;56.30;;;;;;5028018;28;19916;-66
2022/06/03 00:14:01;;;;;;;;;;;20.40;56.30;;;;;;5047022;28;19928;-66
2022/06/03 00:16:45;;;;;;;;;;;20.40;56.30;;;;;;5047695;28;20375;-65
2022/06/03 00:19:30;;;;;;;;;;;20.40;56.30;;;;;;5047317;28;19959;-65
2022/06/03 00:22:04;;;;;;;;;;;20.40;56.30;;;;;;5049677;28;20031;-63
2022/06/03 00:24:48;;;;;;;;;;;20.40;56.20;;;;;;5046017;28;19913;-67
2022/06/03 00:27:35;;;;;;;;;;;20.40;56.20;;;;;;5064081;28;20303;-67
2022/06/03 00:30:04;;;;;;;;;;;20.40;56.20;;;;;;5064515;28;19913;-65
2022/06/03 00:32:39;;;;;;;;;;;20.40;56.20;;;;;;5070349;28;20405;-66
2022/06/03 00:35:10;;;;;;;;;;;20.40;56.20;;;;;;5084828;28;19920;-63
2022/06/03 00:37:54;;;;;;;;;;;20.40;56.20;;;;;;5078274;28;20379;-64
2022/06/03 00:40:19;;;;;;;;;;;20.40;56.20;;;;;;5064158;28;19916;-65
2022/06/03 00:42:48;;;;;;;;;;;20.40;56.20;;;;;;5070824;28;20419;-66
2022/06/03 00:45:22;;;;;;;;;;;20.30;56.10;;;;;;5084511;28;19922;-65
2022/06/03 00:48:07;;;;;;;;;;;20.40;56.20;;;;;;5062766;28;19913;-65
2022/06/03 00:50:32;;;;;;;;;;;20.30;56.10;;;;;;5062289;28;19948;-65
2022/06/03 00:53:06;;;;;;;;;;;20.40;56.20;;;;;;5070784;28;20033;-63
2022/06/03 00:55:37;;;;;;;;;;;20.30;56.10;;;;;;5063845;28;20295;-65
2022/06/03 00:58:10;;;;;;;;;;;20.30;56.10;;;;;;5052685;28;19919;-66
2022/06/03 01:00:36;;;;;;;;;;;20.30;56.10;;;;;;5064660;28;21895;-67
2022/06/03 01:03:22;;;;;;;;;;;20.30;56.10;;;;;;5076420;28;19917;-65
2022/06/03 01:05:48;;;;;;;;;;;20.30;56.10;;;;;;5045440;28;19920;-66
2022/06/03 01:08:13;;;;;;;;;;;20.30;56.10;;;;;;5070776;28;19919;-63
2022/06/03 01:10:44;;;;;;;;;;;20.30;56.10;;;;;;5083367;28;19912;-62
2022/06/03 01:13:19;;;;;;;;;;;20.30;56.10;;;;;;5077772;28;19913;-65
2022/06/03 01:15:54;;;;;;;;;;;20.30;56.10;;;;;;5064215;28;19919;-65
2022/06/03 01:18:38;;;;;;;;;;;20.30;56.10;;;;;;5069667;28;19943;-65
2022/06/03 01:21:06;;;;;;;;;;;20.30;56.10;;;;;;5083191;28;19916;-65
2022/06/03 01:23:42;;;;;;;;;;;20.30;56.10;;;;;;5076139;28;19970;-66
2022/06/03 01:26:11;;;;;;;;;;;20.30;56.10;;;;;;5063689;28;20795;-66
2022/06/03 01:28:40;;;;;;;;;;;20.30;56.10;;;;;;5064367;28;22190;-66
2022/06/03 01:31:11;;;;;;;;;;;20.30;56.00;;;;;;5083293;28;19920;-64
2022/06/03 01:33:52;;;;;;;;;;;20.20;56.10;;;;;;5076760;28;20003;-66
2022/06/03 01:36:40;;;;;;;;;;;20.30;56.10;;;;;;5062795;28;19916;-65
2022/06/03 01:39:24;;;;;;;;;;;20.30;56.10;;;;;;5054815;28;21813;-65
2022/06/03 01:42:16;;;;;;;;;;;20.30;56.10;;;;;;5082806;28;20306;-66
2022/06/03 01:44:44;;;;;;;;;;;20.30;56.10;;;;;;5067801;28;19927;-65
2022/06/03 01:47:15;;;;;;;;;;;20.30;56.00;;;;;;5063206;28;20313;-65
2022/06/03 01:50:01;;;;;;;;;;;20.20;55.90;;;;;;5075563;28;20015;-65
2022/06/03 01:52:43;;;;;;;;;;;20.30;56.00;;;;;;5082597;28;19916;-65
2022/06/03 01:55:17;;;;;;;;;;;20.30;56.00;;;;;;5055160;28;19984;-65
2022/06/03 01:57:49;;;;;;;;;;;20.30;56.00;;;;;;5061855;28;20011;-65
2022/06/03 02:00:18;;;;;;;;;;;20.30;56.00;;;;;;5064454;28;20003;-66
2022/06/03 02:02:52;;;;;;;;;;;20.20;55.90;;;;;;5082846;28;19916;-65
2022/06/03 02:05:24;;;;;;;;;;;20.20;55.90;;;;;;5061331;28;20002;-63
2022/06/03 02:08:08;;;;;;;;;;;20.20;55.90;;;;;;5062943;28;19943;-65
2022/06/03 02:10:33;;;;;;;;;;;20.20;56.20;;;;;;5079902;28;19916;-65
2022/06/03 02:13:06;;;;;;;;;;;20.20;56.00;;;;;;5083067;28;19920;-65
2022/06/03 02:15:40;;;;;;;;;;;20.20;55.90;;;;;;5062144;28;19944;-65
2022/06/03 02:18:15;;;;;;;;;;;20.20;55.90;;;;;;5062911;28;20627;-64
2022/06/03 02:20:46;;;;;;;;;;;20.20;55.90;;;;;;5079893;28;20314;-64
2022/06/03 02:23:27;;;;;;;;;;;20.20;56.00;;;;;;5083182;28;19927;-65
2022/06/03 02:25:56;;;;;;;;;;;20.20;56.00;;;;;;5062389;28;19921;-66
2022/06/03 02:28:41;;;;;;;;;;;20.20;56.00;;;;;;5063663;28;19912;-66
2022/06/03 02:31:25;;;;;;;;;;;20.20;55.90;;;;;;5087326;28;19924;-66
2022/06/03 02:34:06;;;;;;;;;;;20.20;56.00;;;;;;5065691;28;20011;-65
2022/06/03 02:36:51;;;;;;;;;;;20.20;55.90;;;;;;5082598;28;19916;-65
2022/06/03 02:39:19;;;;;;;;;;;20.20;55.90;;;;;;5078616;28;20330;-64
2022/06/03 02:41:57;;;;;;;;;;;20.20;55.90;;;;;;5062454;28;19982;-63
2022/06/03 02:44:37;;;;;;;;;;;20.20;55.90;;;;;;5065707;28;19923;-67
2022/06/03 02:47:14;;;;;;;;;;;20.20;56.00;;;;;;5064345;28;19965;-66
2022/06/03 02:49:58;;;;;;;;;;;20.20;55.90;;;;;;5076330;28;19977;-66
2022/06/03 02:52:23;;;;;;;;;;;20.20;55.90;;;;;;5062601;28;20394;-66
2022/06/03 02:54:49;;;;;;;;;;;20.20;55.90;;;;;;5066673;28;19916;-65
2022/06/03 02:57:17;;;;;;;;;;;20.20;55.90;;;;;;5082054;28;19916;-66
2022/06/03 02:59:50;;;;;;;;;;;20.10;55.90;;;;;;5060261;28;19920;-65
2022/06/03 03:02:18;;;;;;;;;;;20.10;55.80;;;;;;5060791;28;20268;-67
2022/06/03 03:04:47;;;;;;;;;;;20.10;55.90;;;;;;5065462;28;19924;-66
2022/06/03 03:07:35;;;;;;;;;;;20.10;55.80;;;;;;5064286;28;19938;-66
2022/06/03 03:10:16;;;;;;;;;;;20.10;55.90;;;;;;5060363;28;20310;-65
2022/06/03 03:12:44;;;;;;;;;;;20.10;56.00;;;;;;5062039;28;20375;-65
2022/06/03 03:15:26;;;;;;;;;;;20.10;55.90;;;;;;5067893;28;19935;-64
2022/06/03 03:17:56;;;;;;;;;;;20.20;55.90;;;;;;5081363;28;19923;-65
2022/06/03 03:20:36;;;;;;;;;;;20.10;55.80;;;;;;5059801;28;19912;-65
2022/06/03 03:23:08;;;;;;;;;;;20.10;55.80;;;;;;5061999;28;20386;-62
2022/06/03 03:25:54;;;;;;;;;;;20.10;55.80;;;;;;5069295;28;19916;-65
2022/06/03 03:28:39;;;;;;;;;;;20.10;55.90;;;;;;5062212;28;21371;-66
2022/06/03 03:31:12;;;;;;;;;;;20.10;55.80;;;;;;5070083;28;19921;-65
2022/06/03 03:33:43;;;;;;;;;;;20.10;55.90;;;;;;5054192;28;19916;-66
2022/06/03 03:36:27;;;;;;;;;;;20.10;55.80;;;;;;5043817;28;21527;-65
2022/06/03 03:38:57;;;;;;;;;;;20.10;55.70;;;;;;5061046;28;19931;-67
2022/06/03 03:41:28;;;;;;;;;;;20.20;55.70;;;;;;5056253;28;19912;-65
2022/06/03 03:44:03;;;;;;;;;;;20.10;55.60;;;;;;5081214;28;20455;-65
2022/06/03 03:47:07;;;;;;;;;;;20.10;55.70;;;;;;5060396;28;19959;-65
2022/06/03 03:49:47;;;;;;;;;;;20.10;55.70;;;;;;5017907;28;19913;-66
2022/06/03 03:52:13;;;;;;;;;;;20.10;55.70;;;;;;5000653;28;19914;-64
2022/06/03 03:54:42;;;;;;;;;;;20.10;55.60;;;;;;5034192;28;19939;-66
2022/06/03 03:57:22;;;;;;;;;;;20.10;55.60;;;;;;5058419;28;19927;-66
2022/06/03 03:59:54;;;;;;;;;;;20.10;55.60;;;;;;5080199;28;22525;-66
2022/06/03 04:02:23;;;;;;;;;;;20.10;55.60;;;;;;5062157;28;19913;-64
2022/06/03 04:04:48;;;;;;;;;;;20.10;55.60;;;;;;5061247;28;20202;-66
2022/06/03 04:07:16;;;;;;;;;;;20.10;55.60;;;;;;5065023;28;19942;-66
2022/06/03 04:09:53;;;;;;;;;;;20.10;55.60;;;;;;5064835;28;19951;-66
2022/06/03 04:12:33;;;;;;;;;;;20.10;55.60;;;;;;5059642;28;19924;-67
2022/06/03 04:15:18;;;;;;;;;;;20.10;56.20;;;;;;5065786;28;19916;-67
2022/06/03 04:17:54;;;;;;;;;;;20.10;55.60;;;;;;5085264;28;20539;-65
2022/06/03 04:20:26;;;;;;;;;;;20.10;55.60;;;;;;5068509;28;19916;-65
2022/06/03 04:22:59;;;;;;;;;;;20.10;55.60;;;;;;5065988;28;19956;-64
2022/06/03 04:25:33;;;;;;;;;;;20.10;55.60;;;;;;5065534;28;20392;-67
2022/06/03 04:28:17;;;;;;;;;;;20.10;55.70;;;;;;5068296;28;19923;-64
2022/06/03 04:31:01;;;;;;;;;;;20.10;55.60;;;;;;5084454;28;19916;-66
2022/06/03 04:33:46;;;;;;;;;;;20.10;55.70;;;;;;5049522;28;19970;-64
2022/06/03 04:36:11;;;;;;;;;;;20.10;55.60;;;;;;5064427;28;19912;-65
2022/06/03 04:38:55;;;;;;;;;;;20.20;55.60;;;;;;5063481;28;19916;-64
2022/06/03 04:41:40;;;;;;;;;;;20.20;55.60;;;;;;5067782;28;19916;-63
2022/06/03 04:44:19;;;;;;;;;;;20.20;55.60;;;;;;5065989;28;19999;-65
2022/06/03 04:47:05;;;;;;;;;;;20.20;55.60;;;;;;5062935;28;19920;-64
2022/06/03 04:49:49;;;;;;;;;;;20.20;55.60;;;;;;5061797;28;19958;-65
2022/06/03 04:52:33;;;;;;;;;;;20.20;55.60;;;;;;5074109;28;19913;-64
2022/06/03 04:58:16;;;;;;;;;;;20.20;55.90;;;;;;5006655;28;20091;-66
2022/06/03 05:01:01;;;;;;;;;;;20.20;55.70;;;;;;5022865;28;19921;-65
2022/06/03 05:03:45;;;;;;;;;;;20.30;55.40;;;;;;5025145;28;19921;-67
2022/06/03 05:06:22;;;;;;;;;;;20.20;55.40;;;;;;5024946;28;19924;-67
2022/06/03 05:08:53;;;;;;;;;;;20.20;55.10;;;;;;4987890;28;19913;-65
2022/06/03 05:11:34;;;;;;;;;;;20.30;55.50;;;;;;4997552;28;19920;-64
2022/06/03 05:14:00;;;;;;;;;;;20.30;55.60;;;;;;5005898;28;20059;-69
2022/06/03 05:16:34;;;;;;;;;;;20.30;55.60;;;;;;5005718;28;20586;-69
2022/06/03 05:18:59;;;;;;;;;;;20.30;55.70;;;;;;5006908;28;19917;-67
2022/06/03 05:21:40;;;;;;;;;;;20.30;55.70;;;;;;5025071;28;19913;-68
2022/06/03 05:24:38;;;;;;;;;;;20.30;53.70;;;;;;5004585;28;19987;-67
2022/06/03 05:27:18;;;;;;;;;;;20.30;55.50;;;;;;4982967;28;19924;-68
2022/06/03 05:29:59;;;;;;;;;;;20.30;55.40;;;;;;5024098;28;19996;-66
2022/06/03 05:32:41;;;;;;;;;;;20.30;55.70;;;;;;5024013;28;20437;-67
2022/06/03 05:35:11;;;;;;;;;;;20.30;56.10;;;;;;5006446;28;20378;-68
2022/06/03 05:37:43;;;;;;;;;;;20.30;56.10;;;;;;5006792;28;19913;-68
2022/06/03 05:40:23;;;;;;;;;;;20.30;55.90;;;;;;5024586;28;19945;-68
2022/06/03 05:43:07;;;;;;;;;;;20.30;56.10;;;;;;5014958;28;19932;-65
2022/06/03 05:45:52;;;;;;;;;;;20.30;56.30;;;;;;5024322;28;19917;-67
2022/06/03 05:48:27;;;;;;;;;;;20.30;56.00;;;;;;4971117;28;19921;-68
2022/06/03 05:50:52;;;;;;;;;;;20.30;55.10;;;;;;5024606;28;22046;-66
2022/06/03 05:53:39;;;;;;;;;;;20.30;53.40;;;;;;5025326;28;20009;-68
2022/06/03 05:56:05;;;;;;;;;;;20.20;55.10;;;;;;5007894;28;19917;-67
2022/06/03 05:58:49;;;;;;;;;;;20.20;56.00;;;;;;5013596;28;20012;-67
2022/06/03 06:01:24;;;;;;;;;;;20.30;56.10;;;;;;5024975;28;19996;-66
2022/06/03 06:03:56;;;;;;;;;;;20.30;55.80;;;;;;5006260;28;20605;-66
2022/06/03 06:06:21;;;;;;;;;;;20.30;56.00;;;;;;5006183;28;19940;-67
2022/06/03 06:08:53;;;;;;;;;;;20.30;56.30;;;;;;5024781;28;20346;-67
2022/06/03 06:11:35;;;;;;;;;;;20.40;55.40;;;;;;5024261;28;19980;-67
2022/06/03 06:14:04;;;;;;;;;;;20.30;54.40;;;;;;5016008;28;21779;-67
2022/06/03 06:16:42;;;;;;;;;;;20.30;55.90;;;;;;5006368;28;19995;-67
2022/06/03 06:19:13;;;;;;;;;;;20.30;53.90;;;;;;4998027;28;19920;-66
2022/06/03 06:21:58;;;;;;;;;;;20.30;55.70;;;;;;4986963;28;19918;-67
2022/06/03 06:24:30;;;;;;;;;;;20.30;55.70;;;;;;5038501;28;20371;-67
2022/06/03 06:27:08;;;;;;;;;;;20.30;53.70;;;;;;5043301;28;19924;-68
2022/06/03 06:29:52;;;;;;;;;;;20.20;55.40;;;;;;5028084;28;19913;-68
2022/06/03 06:32:27;;;;;;;;;;;20.20;55.60;;;;;;5007208;28;19913;-66
2022/06/03 06:34:58;;;;;;;;;;;20.30;56.10;;;;;;5022472;28;21768;-68
2022/06/03 06:37:36;;;;;;;;;;;20.30;54.50;;;;;;5043018;28;19913;-68
2022/06/03 06:40:09;;;;;;;;;;;20.30;56.00;;;;;;5025707;28;19964;-67
2022/06/03 06:42:43;;;;;;;;;;;20.10;53.00;;;;;;5023608;28;19996;-68
2022/06/03 06:45:20;;;;;;;;;;;20.10;53.60;;;;;;5023294;28;19917;-67
2022/06/03 06:47:53;;;;;;;;;;;20.00;54.50;;;;;;5027198;28;19913;-68
2022/06/03 06:50:18;;;;;;;;;;;20.10;55.10;;;;;;4995837;28;21408;-69
2022/06/03 06:52:47;;;;;;;;;;;20.10;54.50;;;;;;5004055;28;19920;-68
2022/06/03 06:55:15;;;;;;;;;;;20.10;55.30;;;;;;5012252;28;19928;-68
2022/06/03 06:57:45;;;;;;;;;;;20.10;54.40;;;;;;5002402;28;19928;-67
2022/06/03 07:00:33;;;;;;;;;;;20.10;53.50;;;;;;5018824;28;19925;-68
2022/06/03 07:03:24;;;;;;;;;;;20.00;54.30;;;;;;5008834;28;20414;-68
2022/06/03 07:05:54;;;;;;;;;;;20.20;54.00;;;;;;4983080;28;19918;-65
2022/06/03 07:08:38;;;;;;;;;;;20.10;52.60;;;;;;4982653;28;20077;-66
2022/06/03 07:11:08;;;;;;;;;;;20.10;54.00;;;;;;4982892;28;19918;-67
2022/06/03 07:13:52;;;;;;;;;;;20.10;54.30;;;;;;4984757;28;19921;-67
2022/06/03 07:19:49;;;;;;;;;;;20.00;54.00;;;;;;5022829;28;19975;-67
2022/06/03 07:22:17;;;;;;;;;;;20.10;54.10;;;;;;5006830;28;20021;-68
2022/06/03 07:24:48;;;;;;;;;;;20.10;53.90;;;;;;5019897;28;20491;-68
2022/06/03 07:27:36;;;;;;;;;;;20.10;53.60;;;;;;5021843;28;19919;-67
2022/06/03 07:30:07;;;;;;;;;;;20.00;53.60;;;;;;5018036;28;19980;-68
2022/06/03 07:32:37;;;;;;;;;;;20.10;54.10;;;;;;5024201;28;19917;-67
2022/06/03 07:35:05;;;;;;;;;;;20.10;54.40;;;;;;5000572;28;19913;-67
2022/06/03 07:37:40;;;;;;;;;;;20.20;53.60;;;;;;4987151;28;19964;-68
2022/06/03 07:40:06;;;;;;;;;;;20.20;54.20;;;;;;4985791;28;19917;-67
2022/06/03 07:42:40;;;;;;;;;;;20.20;54.00;;;;;;5006313;28;19964;-67
2022/06/03 07:45:23;;;;;;;;;;;20.20;54.10;;;;;;4990716;28;19921;-67
2022/06/03 07:47:48;;;;;;;;;;;20.20;53.90;;;;;;5027297;28;20532;-68
2022/06/03 07:50:15;;;;;;;;;;;20.20;54.20;;;;;;5028515;28;19913;-67
2022/06/03 07:52:59;;;;;;;;;;;20.30;54.10;;;;;;5009742;28;19928;-67
2022/06/03 07:55:25;;;;;;;;;;;20.30;54.50;;;;;;5023375;28;20008;-68
2022/06/03 07:57:52;;;;;;;;;;;20.20;54.50;;;;;;4989683;28;20299;-67
2022/06/03 08:00:18;;;;;;;;;;;20.30;54.60;;;;;;4989744;28;20372;-67
2022/06/03 08:02:43;;;;;;;;;;;20.30;53.40;;;;;;4989181;28;19988;-68
2022/06/03 08:05:10;;;;;;;;;;;20.20;54.50;;;;;;5006113;28;20003;-68
2022/06/03 08:13:09;;;;;;;;;;;20.20;54.30;;;;;;5011451;28;19955;-65
2022/06/03 08:15:36;;;;;;;;;;;20.30;54.70;;;;;;5020534;28;19949;-67
2022/06/03 08:18:05;;;;;;;;;;;20.20;54.30;;;;;;4988937;28;20397;-67
2022/06/03 08:20:31;;;;;;;;;;;20.20;54.20;;;;;;4989090;28;20346;-68
2022/06/03 08:22:56;;;;;;;;;;;20.30;54.70;;;;;;5006314;28;19920;-67
2022/06/03 08:25:24;;;;;;;;;;;20.30;54.70;;;;;;5005949;28;20178;-66
2022/06/03 08:27:49;;;;;;;;;;;20.30;54.50;;;;;;5006386;28;19992;-66
2022/06/03 08:30:22;;;;;;;;;;;20.30;54.70;;;;;;5005971;28;20480;-67
2022/06/03 08:32:49;;;;;;;;;;;20.30;54.90;;;;;;5004957;28;21727;-66
2022/06/03 08:35:15;;;;;;;;;;;20.30;55.00;;;;;;5005481;28;19914;-66
2022/06/03 08:37:46;;;;;;;;;;;20.30;55.00;;;;;;4988615;28;20009;-67
2022/06/03 08:40:23;;;;;;;;;;;20.30;54.80;;;;;;5005784;28;19922;-67
2022/06/03 08:43:00;;;;;;;;;;;20.30;54.60;;;;;;4988719;28;19949;-66
2022/06/03 08:45:28;;;;;;;;;;;20.30;54.00;;;;;;5011241;28;22277;-68
2022/06/03 08:47:54;;;;;;;;;;;20.30;54.00;;;;;;5025739;28;19913;-68
2022/06/03 08:50:23;;;;;;;;;;;20.30;54.30;;;;;;5023686;28;19920;-67
2022/06/03 08:52:53;;;;;;;;;;;20.30;54.60;;;;;;5023692;28;20365;-67
2022/06/03 08:55:22;;;;;;;;;;;20.30;54.60;;;;;;4997991;28;20008;-69
2022/06/03 08:57:47;;;;;;;;;;;20.30;54.60;;;;;;5025055;28;20138;-68
2022/06/03 09:00:16;;;;;;;;;;;20.30;54.60;;;;;;5007068;28;20453;-67
2022/06/03 09:02:45;;;;;;;;;;;20.40;54.30;;;;;;4951917;28;19930;-67
2022/06/03 09:05:29;;;;;;;;;;;20.40;51.70;;;;;;4967692;28;19957;-67
2022/06/03 09:08:13;;;;;;;;;;;20.40;52.70;;;;;;4967770;28;20508;-64
2022/06/03 09:10:44;;;;;;;;;;;20.40;53.40;;;;;;4987631;28;20419;-66
2022/06/03 09:13:15;;;;;;;;;;;20.40;53.10;;;;;;4987432;28;20287;-67
2022/06/03 09:15:40;;;;;;;;;;;20.40;53.50;;;;;;4986841;28;20447;-67
2022/06/03 09:18:08;;;;;;;;;;;20.40;53.70;;;;;;4987490;28;20004;-67
2022/06/03 09:20:38;;;;;;;;;;;20.40;54.00;;;;;;4987290;28;19921;-68
2022/06/03 09:23:05;;;;;;;;;;;20.40;54.00;;;;;;4987461;28;19920;-67
2022/06/03 09:25:33;;;;;;;;;;;20.30;53.90;;;;;;4976490;28;20016;-66
2022/06/03 09:28:02;;;;;;;;;;;20.40;54.30;;;;;;4990433;28;19974;-67
2022/06/03 09:30:31;;;;;;;;;;;20.40;54.30;;;;;;5007202;28;19921;-67
2022/06/03 09:32:56;;;;;;;;;;;20.40;54.00;;;;;;5023748;28;19913;-66
2022/06/03 09:35:22;;;;;;;;;;;20.40;53.70;;;;;;5026720;28;20030;-68
2022/06/03 09:37:49;;;;;;;;;;;20.40;54.00;;;;;;5011187;28;19935;-68
2022/06/03 09:40:16;;;;;;;;;;;20.40;54.20;;;;;;5006956;28;19913;-67
2022/06/03 09:42:51;;;;;;;;;;;20.40;53.50;;;;;;5021617;28;19921;-67
2022/06/03 09:45:20;;;;;;;;;;;20.40;53.30;;;;;;5026600;28;19920;-68
2022/06/03 09:47:46;;;;;;;;;;;20.40;53.10;;;;;;5030154;28;19921;-68
2022/06/03 09:50:13;;;;;;;;;;;20.40;52.30;;;;;;5024887;28;20354;-68
2022/06/03 09:52:38;;;;;;;;;;;20.40;52.40;;;;;;5037612;28;19913;-67
2022/06/03 09:55:06;;;;;;;;;;;20.40;52.10;;;;;;5026431;28;19916;-67
2022/06/03 09:57:35;;;;;;;;;;;20.50;51.30;;;;;;5014766;28;20012;-67
2022/06/03 10:00:23;;;;;;;;;;;20.40;51.80;;;;;;5007094;28;20418;-67
2022/06/03 10:02:48;;;;;;;;;;;20.50;52.50;;;;;;5024414;28;19920;-67
2022/06/03 10:05:16;;;;;;;;;;;20.40;52.60;;;;;;5005729;28;19917;-67
2022/06/03 10:07:41;;;;;;;;;;;20.40;52.60;;;;;;4999124;28;19924;-67
2022/06/03 10:12:56;;;;;;;;;;;20.50;52.70;;;;;;5021219;28;19944;-67
2022/06/03 10:15:40;;;;;;;;;;;20.50;52.70;;;;;;5043986;28;19913;-68
2022/06/03 10:18:08;;;;;;;;;;;20.40;52.80;;;;;;5012193;28;20110;-67
2022/06/03 10:20:34;;;;;;;;;;;20.50;52.20;;;;;;5003218;28;19936;-67
2022/06/03 10:23:01;;;;;;;;;;;20.50;52.60;;;;;;5015896;28;20383;-67
2022/06/03 10:25:27;;;;;;;;;;;20.50;52.60;;;;;;5024424;28;19928;-68
2022/06/03 10:27:52;;;;;;;;;;;20.50;52.40;;;;;;5024495;28;19913;-67
2022/06/03 10:30:24;;;;;;;;;;;20.40;52.50;;;;;;5025442;28;19974;-68
2022/06/03 10:32:50;;;;;;;;;;;20.50;52.60;;;;;;4968186;28;19918;-67
2022/06/03 10:35:16;;;;;;;;;;;20.50;52.70;;;;;;4984411;28;19924;-65
2022/06/03 10:37:48;;;;;;;;;;;20.50;52.60;;;;;;4997803;28;19992;-65
2022/06/03 10:40:14;;;;;;;;;;;20.50;52.50;;;;;;5022650;28;19913;-67
2022/06/03 10:42:40;;;;;;;;;;;20.50;52.70;;;;;;5016878;28;19920;-66
2022/06/03 10:45:06;;;;;;;;;;;20.50;52.50;;;;;;4985913;28;20291;-66
2022/06/03 10:47:33;;;;;;;;;;;20.50;52.60;;;;;;4989873;28;19917;-67
2022/06/03 10:49:59;;;;;;;;;;;20.50;52.30;;;;;;5022894;28;19913;-67
2022/06/03 11:01:25;;;;;;;;;;;20.50;52.50;;;;;;5011501;28;19959;-67
2022/06/03 11:03:51;;;;;;;;;;;20.50;52.40;;;;;;5021867;28;19951;-68
2022/06/03 11:06:18;;;;;;;;;;;20.60;52.10;;;;;;5022992;28;19948;-66
2022/06/03 11:08:46;;;;;;;;;;;20.50;51.60;;;;;;5034689;28;20367;-66
2022/06/03 11:11:12;;;;;;;;;;;20.50;51.70;;;;;;5043188;28;19944;-65
2022/06/03 11:13:39;;;;;;;;;;;20.60;51.80;;;;;;5015599;28;19987;-67
2022/06/03 11:16:21;;;;;;;;;;;20.60;51.90;;;;;;5023804;28;19914;-68
2022/06/03 11:18:46;;;;;;;;;;;20.60;51.80;;;;;;5019903;28;19924;-68
2022/06/03 11:21:25;;;;;;;;;;;20.60;51.90;;;;;;5047444;28;20685;-68
2022/06/03 11:23:51;;;;;;;;;;;20.60;51.90;;;;;;5018578;28;21433;-68
2022/06/03 11:26:16;;;;;;;;;;;20.60;52.40;;;;;;5009112;28;19921;-68
2022/06/03 11:28:44;;;;;;;;;;;20.60;51.30;;;;;;5035400;28;19921;-68
2022/06/03 11:31:23;;;;;;;;;;;20.60;50.80;;;;;;5029174;28;19917;-67
2022/06/03 11:33:50;;;;;;;;;;;20.60;51.40;;;;;;4988777;28;19936;-64
2022/06/03 11:36:20;;;;;;;;;;;20.60;51.60;;;;;;4989921;28;19925;-66
2022/06/03 11:38:48;;;;;;;;;;;20.60;51.50;;;;;;4989799;28;19920;-68
2022/06/03 11:41:14;;;;;;;;;;;20.60;52.10;;;;;;4990247;28;19971;-67
2022/06/03 11:43:48;;;;;;;;;;;20.60;51.50;;;;;;4989594;28;19924;-69
2022/06/03 11:46:14;;;;;;;;;;;20.60;51.40;;;;;;4989540;28;19918;-68
2022/06/03 11:48:40;;;;;;;;;;;20.60;50.80;;;;;;4989502;28;19917;-69
2022/06/03 11:51:06;;;;;;;;;;;20.70;50.90;;;;;;5007047;28;19913;-66
2022/06/03 11:53:32;;;;;;;;;;;20.70;50.70;;;;;;4989229;28;19969;-67
2022/06/03 11:56:00;;;;;;;;;;;20.70;50.90;;;;;;4989649;28;19986;-66
2022/06/03 11:58:45;;;;;;;;;;;20.70;50.50;;;;;;4989650;28;19965;-68
2022/06/03 12:01:12;;;;;;;;;;;20.70;50.30;;;;;;4987906;28;19971;-66
2022/06/03 12:03:41;;;;;;;;;;;20.70;50.50;;;;;;4987649;28;19960;-66
2022/06/03 12:06:11;;;;;;;;;;;20.70;50.80;;;;;;5026249;28;19925;-66
2022/06/03 12:08:45;;;;;;;;;;;20.70;50.60;;;;;;5008583;28;20009;-69
2022/06/03 12:13:14;;;;;;;;;;;20.70;51.00;;;;;;5026743;28;19913;-68
2022/06/03 12:14:12;;;;;;;;;;;20.70;50.90;;;;;;5026166;28;20650;-65
2022/06/03 12:16:54;;;;;;;;;;;20.70;50.90;;;;;;5008047;28;19939;-69
2022/06/03 12:19:36;;;;;;;;;;;20.80;50.70;;;;;;5026689;28;19913;-69
2022/06/03 12:22:14;;;;;;;;;;;20.80;49.20;;;;;;4992878;28;20290;-67
2022/06/03 12:24:40;;;;;;;;;;;20.80;49.60;;;;;;5022219;28;19924;-68
2022/06/03 12:27:09;;;;;;;;;;;20.70;49.80;;;;;;4992769;28;19925;-69
2022/06/03 12:29:37;;;;;;;;;;;20.70;49.70;;;;;;4992132;28;19913;-69
2022/06/03 12:32:13;;;;;;;;;;;20.80;50.50;;;;;;5003125;28;20004;-68
2022/06/03 12:34:39;;;;;;;;;;;20.80;49.20;;;;;;4988324;28;19928;-66
2022/06/03 12:37:24;;;;;;;;;;;20.80;49.60;;;;;;5005356;28;19917;-68
2022/06/03 12:39:59;;;;;;;;;;;20.70;49.60;;;;;;5004564;28;19972;-69
2022/06/03 12:42:31;;;;;;;;;;;20.80;49.90;;;;;;5005044;28;19941;-68
2022/06/03 12:44:56;;;;;;;;;;;20.80;50.00;;;;;;5005720;28;19925;-67
2022/06/03 12:47:26;;;;;;;;;;;20.80;50.20;;;;;;5006171;28;20044;-68
2022/06/03 12:49:52;;;;;;;;;;;20.80;50.10;;;;;;5004610;28;20327;-65
2022/06/03 12:52:20;;;;;;;;;;;20.80;50.10;;;;;;5006619;28;20015;-66
2022/06/03 12:54:47;;;;;;;;;;;20.80;50.30;;;;;;5005948;28;19944;-68
2022/06/03 12:57:26;;;;;;;;;;;20.80;50.20;;;;;;5004327;28;19913;-68
2022/06/03 12:59:59;;;;;;;;;;;20.90;49.80;;;;;;5013450;28;20058;-68
2022/06/03 13:02:24;;;;;;;;;;;20.80;50.00;;;;;;5027814;28;19920;-68
2022/06/03 13:04:53;;;;;;;;;;;20.90;50.40;;;;;;5021973;28;20358;-67
2022/06/03 13:07:27;;;;;;;;;;;20.90;50.30;;;;;;5025478;28;20468;-67
2022/06/03 13:09:56;;;;;;;;;;;20.90;50.90;;;;;;5030265;28;19912;-68
2022/06/03 13:12:27;;;;;;;;;;;20.90;50.60;;;;;;5046055;28;19913;-63
2022/06/03 13:14:52;;;;;;;;;;;20.80;50.80;;;;;;5023624;28;19939;-67
2022/06/03 13:17:36;;;;;;;;;;;20.80;50.90;;;;;;5026223;28;19914;-66
2022/06/03 13:20:02;;;;;;;;;;;20.90;51.30;;;;;;5007570;28;20499;-68
2022/06/03 13:22:29;;;;;;;;;;;20.90;50.50;;;;;;5006548;28;19917;-68
2022/06/03 13:25:22;;;;;;;;;;;20.90;50.70;;;;;;4987849;28;20399;-67
2022/06/03 13:28:07;;;;;;;;;;;20.90;50.30;;;;;;4997880;28;19914;-68
2022/06/03 13:30:34;;;;;;;;;;;21.00;50.70;;;;;;5025309;28;19913;-68
2022/06/03 13:32:59;;;;;;;;;;;20.90;50.60;;;;;;5025358;28;19917;-68
2022/06/03 13:35:27;;;;;;;;;;;20.90;50.60;;;;;;5005878;28;19996;-67
2022/06/03 13:37:55;;;;;;;;;;;21.00;50.80;;;;;;4987842;28;20386;-67
2022/06/03 13:40:23;;;;;;;;;;;20.90;50.90;;;;;;5003722;28;20017;-67
2022/06/03 13:42:59;;;;;;;;;;;20.90;51.10;;;;;;5004928;28;20290;-67
2022/06/03 13:45:27;;;;;;;;;;;20.90;51.10;;;;;;5004063;28;20008;-66
2022/06/03 13:47:53;;;;;;;;;;;21.00;51.40;;;;;;4986904;28;19921;-67
2022/06/03 13:50:22;;;;;;;;;;;20.90;51.30;;;;;;5004841;28;19918;-67
2022/06/03 13:52:51;;;;;;;;;;;21.00;51.50;;;;;;4987332;28;19914;-68
2022/06/03 13:55:24;;;;;;;;;;;21.00;51.50;;;;;;5009372;28;20000;-68
2022/06/03 13:57:51;;;;;;;;;;;21.00;51.60;;;;;;5022589;28;20254;-66
2022/06/03 14:00:22;;;;;;;;;;;21.00;51.60;;;;;;5006360;28;19924;-67
2022/06/03 14:02:48;;;;;;;;;;;21.10;51.70;;;;;;4997268;28;19914;-67
2022/06/03 14:05:14;;;;;;;;;;;21.10;51.90;;;;;;5023773;28;20534;-68
2022/06/03 14:07:41;;;;;;;;;;;21.10;51.90;;;;;;5006747;28;19967;-66
2022/06/03 14:10:19;;;;;;;;;;;21.10;51.80;;;;;;5024127;28;19913;-68
2022/06/03 14:12:52;;;;;;;;;;;21.00;52.00;;;;;;5022471;28;20513;-68
2022/06/03 14:15:21;;;;;;;;;;;21.10;52.10;;;;;;5022617;28;19913;-69
2022/06/03 14:17:46;;;;;;;;;;;21.10;52.00;;;;;;5026939;28;19989;-68
2022/06/03 14:20:13;;;;;;;;;;;21.10;52.10;;;;;;5023905;28;19917;-67
2022/06/03 14:23:17;;;;;;;;;;;21.10;52.10;;;;;;4993336;28;19921;-67
2022/06/03 14:25:47;;;;;;;;;;;21.10;52.10;;;;;;4961662;28;20599;-67
2022/06/03 14:28:21;;;;;;;;;;;21.10;52.60;;;;;;4964592;28;25692;-68
2022/06/03 14:30:51;;;;;;;;;;;21.10;52.10;;;;;;4992756;28;20780;-68
2022/06/03 14:33:16;;;;;;;;;;;21.10;51.90;;;;;;4989439;28;20346;-69
2022/06/03 14:35:43;;;;;;;;;;;21.10;51.90;;;;;;4985641;28;19988;-68
2022/06/03 14:38:11;;;;;;;;;;;21.10;51.90;;;;;;5022941;28;20190;-68
2022/06/03 14:40:36;;;;;;;;;;;21.20;52.00;;;;;;5005909;28;19914;-68
2022/06/03 14:43:02;;;;;;;;;;;21.10;52.00;;;;;;4988151;28;20008;-68
2022/06/03 14:45:28;;;;;;;;;;;21.20;52.00;;;;;;5003824;28;19940;-66
2022/06/03 14:48:00;;;;;;;;;;;21.20;51.90;;;;;;5002191;28;20004;-68
2022/06/03 14:50:27;;;;;;;;;;;21.20;52.20;;;;;;5005868;28;19913;-67
2022/06/03 14:53:16;;;;;;;;;;;21.20;51.80;;;;;;4991059;28;20387;-67
2022/06/03 14:55:43;;;;;;;;;;;21.20;52.00;;;;;;4985983;28;19924;-68
2022/06/03 14:58:08;;;;;;;;;;;21.20;52.00;;;;;;5002534;28;19925;-68
2022/06/03 15:00:54;;;;;;;;;;;21.20;52.30;;;;;;5023379;28;19971;-67
2022/06/03 15:03:21;;;;;;;;;;;21.20;52.00;;;;;;5005342;28;19936;-68
2022/06/03 15:05:48;;;;;;;;;;;21.20;52.20;;;;;;4985845;28;19921;-68
2022/06/03 15:08:16;;;;;;;;;;;21.20;52.00;;;;;;5009804;28;19959;-68
2022/06/03 15:10:44;;;;;;;;;;;21.20;51.80;;;;;;5005659;28;19913;-68
2022/06/03 15:13:10;;;;;;;;;;;21.20;52.20;;;;;;4994957;28;19917;-68